Time;durP1;ratioP1;P1;durP2;ratioP2;P2;SDS_P1;SDS_P2;PMS_P1;PMS_P2;Temp;Humidity;BMP_temperature;BMP_pressure;BME280_temperature;BME280_humidity;BME280_pressure;Samples;Min_cycle;Max_cycle;Signal;HPM_P1;HPM_P2
2022/11/08 00:16:52;;;;;;;6.80;6.30;;;11.70;99.90;;;;;;10523020;28;20204;-80
2022/11/08 00:21:54;;;;;;;7.30;6.70;;;11.70;99.90;;;;;;10528810;28;20207;-79
2022/11/08 00:26:56;;;;;;;7.97;7.37;;;11.60;99.90;;;;;;10503837;28;20243;-83
2022/11/08 00:31:59;;;;;;;7.50;6.80;;;11.60;99.90;;;;;;10555056;28;20779;-83
2022/11/08 00:37:02;;;;;;;8.33;7.63;;;11.50;99.90;;;;;;10533924;28;20212;-83
2022/11/08 00:42:04;;;;;;;10.60;9.70;;;11.40;99.90;;;;;;10535025;28;20199;-80
2022/11/08 00:47:08;;;;;;;8.83;7.93;;;11.40;99.90;;;;;;10541337;28;20405;-80
2022/11/08 00:52:10;;;;;;;8.57;7.87;;;11.30;99.90;;;;;;10519790;28;20234;-80
2022/11/08 00:57:12;;;;;;;8.13;7.40;;;11.30;99.90;;;;;;10535458;28;20472;-80
2022/11/08 01:02:15;;;;;;;8.90;8.10;;;11.30;99.90;;;;;;10535304;28;20278;-80
2022/11/08 01:07:17;;;;;;;8.90;7.70;;;11.20;99.90;;;;;;10540459;28;20216;-79
2022/11/08 01:12:19;;;;;;;8.17;7.37;;;11.20;99.90;;;;;;10555838;28;20187;-80
2022/11/08 01:17:23;;;;;;;8.30;7.73;;;11.20;99.90;;;;;;10550204;22;20325;-79
2022/11/08 01:22:25;;;;;;;9.30;8.50;;;11.20;99.90;;;;;;10408466;28;20199;-79
2022/11/08 01:27:29;;;;;;;8.50;7.90;;;11.20;99.90;;;;;;10368128;28;20230;-79
2022/11/08 01:32:33;;;;;;;8.90;8.00;;;11.20;99.90;;;;;;10416572;28;20254;-79
2022/11/08 01:37:35;;;;;;;7.60;7.10;;;11.10;99.90;;;;;;10443566;28;20678;-79
2022/11/08 01:42:37;;;;;;;12.50;7.23;;;11.10;99.90;;;;;;10405008;28;20198;-79
2022/11/08 01:47:41;;;;;;;7.43;6.90;;;11.00;99.90;;;;;;10422295;28;20210;-82
2022/11/08 01:52:46;;;;;;;7.83;7.13;;;11.00;99.90;;;;;;10407077;28;20282;-80
2022/11/08 01:57:53;;;;;;;8.30;6.77;;;10.90;99.90;;;;;;10370258;28;20214;-81
2022/11/08 02:02:59;;;;;;;8.77;7.90;;;10.80;99.90;;;;;;10419187;28;20276;-79
2022/11/08 02:08:05;;;;;;;7.90;7.40;;;10.70;99.90;;;;;;10471853;28;20280;-80
2022/11/08 02:13:13;;;;;;;8.83;7.93;;;10.70;99.90;;;;;;10471426;28;20227;-81
2022/11/08 02:18:19;;;;;;;6.60;6.20;;;10.60;99.90;;;;;;10465746;28;20720;-81
2022/11/08 02:23:26;;;;;;;7.60;7.00;;;10.60;99.90;;;;;;10445179;28;20285;-78
2022/11/08 02:28:30;;;;;;;17.13;13.37;;;10.50;99.90;;;;;;10425637;28;20681;-81
2022/11/08 02:33:32;;;;;;;8.60;7.90;;;10.50;99.90;;;;;;10443474;28;20225;-80
2022/11/08 02:38:37;;;;;;;8.60;7.80;;;10.50;99.90;;;;;;10447499;28;20708;-80
2022/11/08 02:43:41;;;;;;;8.53;7.90;;;10.40;99.90;;;;;;10402354;28;20288;-80
2022/11/08 02:48:43;;;;;;;7.60;7.10;;;10.40;99.90;;;;;;10446986;28;20221;-79
2022/11/08 02:53:45;;;;;;;8.10;7.40;;;10.40;99.90;;;;;;10459520;28;20268;-81
2022/11/08 02:58:48;;;;;;;7.40;6.83;;;10.40;99.90;;;;;;10449337;28;20213;-82
2022/11/08 03:03:50;;;;;;;8.90;6.80;;;10.40;99.90;;;;;;10432811;28;20194;-80
2022/11/08 03:08:52;;;;;;;7.50;6.80;;;10.40;99.90;;;;;;10438774;28;20259;-81
2022/11/08 03:13:56;;;;;;;9.90;7.77;;;10.30;99.90;;;;;;10449806;28;20665;-81
2022/11/08 03:18:58;;;;;;;8.20;7.57;;;10.30;99.90;;;;;;10430976;28;20229;-81
2022/11/08 03:24:01;;;;;;;8.83;7.07;;;10.20;99.90;;;;;;10453739;28;20205;-80
2022/11/08 03:29:05;;;;;;;6.70;6.27;;;10.20;99.90;;;;;;10433309;28;20248;-80
2022/11/08 03:34:08;;;;;;;7.57;7.00;;;10.10;99.90;;;;;;10419103;28;20194;-79
2022/11/08 03:39:11;;;;;;;8.53;7.93;;;10.10;99.90;;;;;;10400277;28;20697;-81
2022/11/08 03:44:14;;;;;;;9.57;8.77;;;10.10;99.90;;;;;;10402359;28;20313;-80
2022/11/08 03:49:16;;;;;;;8.83;8.13;;;10.20;99.90;;;;;;10428012;28;20252;-81
2022/11/08 03:54:18;;;;;;;8.60;7.90;;;10.10;99.90;;;;;;10388386;28;20194;-80
2022/11/08 03:59:22;;;;;;;7.80;7.30;;;10.20;99.90;;;;;;10416000;28;20266;-81
2022/11/08 04:04:24;;;;;;;8.17;7.57;;;10.10;99.90;;;;;;10442344;28;20527;-80
2022/11/08 04:09:26;;;;;;;7.47;6.80;;;10.20;99.90;;;;;;10416922;28;20218;-81
2022/11/08 04:25:17;;;;;;;8.30;7.50;;;10.20;99.90;;;;;;10449705;28;20212;-82
2022/11/08 04:30:20;;;;;;;8.17;7.67;;;10.30;99.90;;;;;;10440110;28;20217;-82
2022/11/08 04:35:22;;;;;;;8.00;7.50;;;10.30;99.90;;;;;;10420447;28;20197;-81
2022/11/08 04:40:24;;;;;;;9.20;8.50;;;10.30;99.90;;;;;;10404019;28;20241;-81
2022/11/08 04:45:27;;;;;;;16.00;14.50;;;10.20;99.90;;;;;;10419737;28;20205;-83
2022/11/08 04:50:30;;;;;;;10.20;9.30;;;10.20;99.90;;;;;;10417761;28;20217;-81
2022/11/08 04:55:32;;;;;;;10.80;9.90;;;10.10;99.90;;;;;;10407801;28;20208;-81
2022/11/08 05:00:35;;;;;;;11.70;10.80;;;10.00;99.90;;;;;;10414939;28;20252;-82
2022/11/08 05:05:37;;;;;;;10.63;9.73;;;9.90;99.90;;;;;;10425666;28;20270;-79
2022/11/08 05:10:39;;;;;;;9.00;8.30;;;9.90;99.90;;;;;;10424468;28;20227;-79
2022/11/08 05:15:43;;;;;;;8.60;7.90;;;9.90;99.90;;;;;;10415930;28;20189;-81
2022/11/08 05:26:05;;;;;;;8.37;7.83;;;9.80;99.90;;;;;;10402790;28;20244;-81
2022/11/08 05:31:09;;;;;;;8.80;7.90;;;9.90;99.90;;;;;;10438391;28;20287;-80
2022/11/08 05:36:12;;;;;;;10.73;9.80;;;9.90;99.90;;;;;;10395638;28;20598;-80
2022/11/08 05:41:16;;;;;;;8.33;7.80;;;10.00;99.90;;;;;;10408895;28;20209;-82
2022/11/08 05:46:21;;;;;;;9.13;8.43;;;10.00;99.90;;;;;;10411031;28;20754;-82
2022/11/08 05:51:23;;;;;;;11.23;10.23;;;10.00;99.90;;;;;;10405517;28;20201;-80
2022/11/08 05:56:25;;;;;;;9.47;8.67;;;10.00;99.90;;;;;;10403930;28;20685;-79
2022/11/08 06:01:29;;;;;;;45.47;31.30;;;10.00;99.90;;;;;;10415770;28;20188;-80
2022/11/08 06:06:31;;;;;;;20.93;17.80;;;10.00;99.90;;;;;;10400812;28;20665;-81
2022/11/08 06:11:33;;;;;;;10.47;9.60;;;10.00;99.90;;;;;;10400776;28;20211;-81
2022/11/08 06:16:36;;;;;;;9.50;8.70;;;10.00;99.90;;;;;;10390639;28;20253;-82
2022/11/08 06:21:38;;;;;;;10.90;10.03;;;10.00;99.90;;;;;;10373201;28;20191;-81
2022/11/08 06:26:40;;;;;;;7.40;6.80;;;10.00;99.90;;;;;;10376977;28;20221;-80
2022/11/08 06:31:46;;;;;;;9.00;8.20;;;10.00;99.90;;;;;;10383303;28;20221;-82
2022/11/08 06:36:48;;;;;;;9.33;8.53;;;10.00;99.90;;;;;;10371981;28;20808;-81
2022/11/08 06:41:50;;;;;;;9.40;8.63;;;10.00;99.90;;;;;;10446536;28;20190;-78
2022/11/08 06:46:55;;;;;;;8.10;7.53;;;10.00;99.90;;;;;;10407102;28;20739;-79
2022/11/08 06:51:57;;;;;;;7.27;6.57;;;10.00;99.90;;;;;;10393732;28;20190;-79
2022/11/08 06:57:00;;;;;;;9.83;8.80;;;10.00;99.90;;;;;;10355547;28;20655;-79
2022/11/08 07:02:04;;;;;;;8.93;8.20;;;10.10;99.90;;;;;;10382025;28;20203;-79
2022/11/08 07:07:06;;;;;;;10.37;9.17;;;10.20;99.90;;;;;;10410253;28;20236;-80
2022/11/08 07:12:08;;;;;;;8.40;7.80;;;10.20;99.90;;;;;;10374838;28;20208;-81
2022/11/08 07:17:12;;;;;;;7.43;6.97;;;10.20;99.90;;;;;;10392392;28;20308;-78
2022/11/08 07:22:14;;;;;;;7.80;7.10;;;10.30;99.90;;;;;;10375473;28;20276;-80
2022/11/08 07:27:16;;;;;;;7.80;7.30;;;10.40;99.90;;;;;;10408166;28;20252;-80
2022/11/08 07:32:20;;;;;;;7.47;6.87;;;10.50;99.90;;;;;;10392671;28;20241;-80
2022/11/08 07:37:22;;;;;;;8.33;7.63;;;10.60;99.90;;;;;;10390661;28;20205;-79
2022/11/08 07:42:24;;;;;;;8.37;7.70;;;10.80;99.90;;;;;;10444296;28;20254;-82
2022/11/08 07:47:40;;;;;;;7.90;7.30;;;10.90;99.90;;;;;;10396942;28;20213;-81
2022/11/08 07:52:42;;;;;;;7.53;6.93;;;11.00;99.90;;;;;;10391080;28;20556;-78
2022/11/08 07:57:44;;;;;;;7.80;7.30;;;11.00;99.90;;;;;;10418214;28;20228;-80
2022/11/08 08:02:47;;;;;;;8.70;7.97;;;11.00;99.90;;;;;;10401254;28;20282;-82
2022/11/08 08:07:49;;;;;;;8.03;7.40;;;11.00;99.90;;;;;;10412073;28;20244;-82
2022/11/08 08:12:51;;;;;;;8.10;7.60;;;11.00;99.90;;;;;;10381559;28;20225;-81
2022/11/08 08:17:55;;;;;;;8.37;7.57;;;11.10;99.90;;;;;;10381843;28;20279;-81
2022/11/08 08:22:58;;;;;;;7.53;6.97;;;11.10;99.90;;;;;;10428679;28;20197;-80
2022/11/08 08:28:01;;;;;;;8.90;7.37;;;11.30;99.90;;;;;;10380505;28;20224;-82
2022/11/08 08:33:07;;;;;;;5.87;5.47;;;11.40;99.90;;;;;;10383127;28;20261;-79
2022/11/08 08:38:11;;;;;;;7.80;7.00;;;11.50;99.90;;;;;;10388371;28;20233;-81
2022/11/08 08:43:13;;;;;;;8.40;7.00;;;11.70;99.90;;;;;;10445839;28;20198;-81
2022/11/08 08:48:16;;;;;;;7.87;7.17;;;11.90;99.90;;;;;;10423595;28;20553;-80
2022/11/08 08:53:19;;;;;;;7.97;7.37;;;12.00;99.90;;;;;;10373408;28;20247;-80
2022/11/08 08:58:22;;;;;;;17.90;15.53;;;12.20;99.90;;;;;;10377031;28;20205;-81
2022/11/08 09:03:25;;;;;;;9.77;8.77;;;12.30;99.90;;;;;;10373935;28;20189;-80
2022/11/08 09:08:27;;;;;;;7.77;7.03;;;12.40;99.90;;;;;;10371820;28;20217;-80
2022/11/08 09:13:31;;;;;;;10.63;9.63;;;12.50;99.90;;;;;;10425855;28;20239;-80
2022/11/08 09:18:34;;;;;;;6.80;6.10;;;12.50;99.90;;;;;;10389759;28;20217;-80
2022/11/08 09:23:36;;;;;;;7.40;6.87;;;12.50;99.90;;;;;;10352959;28;20559;-80
2022/11/08 09:28:38;;;;;;;5.80;5.33;;;12.60;99.90;;;;;;10369387;28;20221;-81
2022/11/08 09:33:42;;;;;;;6.33;5.63;;;12.60;99.90;;;;;;10369746;28;20193;-80
2022/11/08 09:38:44;;;;;;;5.70;5.40;;;12.60;99.90;;;;;;10354335;28;20233;-80
2022/11/08 09:44:00;;;;;;;6.40;5.90;;;12.60;99.90;;;;;;10430711;28;20243;-81
2022/11/08 09:49:06;;;;;;;7.50;6.80;;;12.70;99.90;;;;;;10374618;28;20256;-81
2022/11/08 09:54:16;;;;;;;8.90;8.10;;;12.70;99.90;;;;;;10373727;28;20193;-81
2022/11/08 09:59:31;;;;;;;5.53;5.13;;;12.80;99.90;;;;;;10403846;28;20214;-80
2022/11/08 10:04:36;;;;;;;5.70;5.30;;;12.90;99.90;;;;;;10372516;28;20285;-80
2022/11/08 10:10:04;;;;;;;6.03;5.37;;;13.00;99.90;;;;;;10369805;28;20309;-80
2022/11/08 10:15:16;;;;;;;4.53;4.33;;;13.20;99.90;;;;;;10387334;28;20555;-80
2022/11/08 10:20:29;;;;;;;4.70;4.50;;;13.40;99.90;;;;;;10385450;28;20222;-81
2022/11/08 10:25:36;;;;;;;4.27;4.07;;;13.60;99.90;;;;;;10386217;28;20210;-80
2022/11/08 10:30:41;;;;;;;4.90;4.40;;;13.80;99.90;;;;;;10387718;28;20217;-80
2022/11/08 10:35:48;;;;;;;4.83;4.63;;;14.00;99.90;;;;;;10407753;28;20200;-80
2022/11/08 10:40:58;;;;;;;4.77;4.47;;;14.10;99.90;;;;;;10401510;28;20551;-80
2022/11/08 10:46:01;;;;;;;4.90;4.60;;;14.20;99.90;;;;;;10420882;28;20283;-80
2022/11/08 10:51:04;;;;;;;5.10;4.77;;;14.20;99.90;;;;;;10379762;28;20292;-81
2022/11/08 10:56:07;;;;;;;7.00;6.40;;;14.20;99.90;;;;;;10379348;28;20238;-80
2022/11/08 11:01:16;;;;;;;7.53;6.77;;;14.10;99.90;;;;;;10423044;28;20278;-81
2022/11/08 11:06:26;;;;;;;6.33;5.93;;;14.10;99.90;;;;;;10397875;28;20222;-80
2022/11/08 11:11:37;;;;;;;7.10;6.50;;;14.10;99.90;;;;;;10417478;28;20721;-80
2022/11/08 11:16:52;;;;;;;7.33;6.50;;;14.20;99.90;;;;;;10415457;28;20217;-80
2022/11/08 11:22:01;;;;;;;10.33;9.43;;;14.30;99.90;;;;;;10394260;28;20240;-80
2022/11/08 11:27:06;;;;;;;8.13;7.53;;;14.30;99.90;;;;;;10401550;28;20221;-80
2022/11/08 11:32:23;;;;;;;5.00;4.70;;;14.30;99.90;;;;;;10409131;28;20198;-80
2022/11/08 11:37:34;;;;;;;6.27;4.70;;;14.40;99.90;;;;;;10408664;28;20217;-81
2022/11/08 11:42:45;;;;;;;4.83;4.43;;;14.60;99.90;;;;;;10394241;28;20206;-80
2022/11/08 11:47:52;;;;;;;4.20;4.00;;;14.60;99.90;;;;;;10392279;28;20605;-80
2022/11/08 11:53:00;;;;;;;4.60;4.30;;;14.70;99.90;;;;;;10395841;28;20213;-80
2022/11/08 11:58:17;;;;;;;5.00;4.60;;;14.80;99.90;;;;;;10411073;28;20222;-80
2022/11/08 12:03:40;;;;;;;4.27;4.03;;;14.80;99.90;;;;;;10391752;28;20200;-80
2022/11/08 12:09:04;;;;;;;4.33;4.00;;;14.80;99.90;;;;;;10431698;28;20224;-80
2022/11/08 12:14:18;;;;;;;3.40;3.30;;;14.80;99.90;;;;;;10440128;28;20193;-80
2022/11/08 12:19:33;;;;;;;4.33;4.03;;;15.00;99.90;;;;;;10423643;28;20359;-81
2022/11/08 12:24:48;;;;;;;4.10;3.80;;;15.20;99.90;;;;;;10441550;28;20205;-80
2022/11/08 12:29:59;;;;;;;4.03;3.73;;;15.40;99.90;;;;;;10438532;28;20224;-80
2022/11/08 12:35:19;;;;;;;3.60;3.50;;;15.40;99.90;;;;;;10423907;28;20676;-85
2022/11/08 12:40:30;;;;;;;4.27;3.93;;;15.40;99.90;;;;;;10413620;28;20558;-83
2022/11/08 12:45:41;;;;;;;4.33;3.93;;;15.50;99.90;;;;;;10425827;28;20194;-80
2022/11/08 12:50:51;;;;;;;4.30;4.00;;;15.60;99.90;;;;;;10425930;28;20607;-80
2022/11/08 12:55:56;;;;;;;4.27;3.97;;;15.70;99.90;;;;;;10448804;28;20216;-80
2022/11/08 13:01:03;;;;;;;3.57;3.27;;;15.80;99.90;;;;;;10417494;28;20202;-81
2022/11/08 13:06:12;;;;;;;3.93;3.70;;;15.90;99.90;;;;;;10434592;28;20227;-81
2022/11/08 13:11:22;;;;;;;3.43;3.20;;;15.90;99.90;;;;;;10416816;28;20198;-81
2022/11/08 13:16:26;;;;;;;3.07;2.87;;;15.70;99.90;;;;;;10439621;28;20218;-80
2022/11/08 13:21:46;;;;;;;3.50;3.20;;;15.60;99.90;;;;;;10415974;28;20281;-80
2022/11/08 13:26:49;;;;;;;9.10;3.77;;;15.60;99.90;;;;;;10428553;28;20213;-80
2022/11/08 13:31:58;;;;;;;3.83;3.63;;;15.50;99.90;;;;;;10410022;28;20198;-80
2022/11/08 13:37:36;;;;;;;2.80;2.60;;;15.40;99.90;;;;;;10421559;28;20217;-80
2022/11/08 13:42:59;;;;;;;3.30;3.00;;;15.40;99.90;;;;;;10403894;28;20198;-80
2022/11/08 13:48:23;;;;;;;3.60;3.40;;;15.40;99.90;;;;;;10417965;28;20225;-80
2022/11/08 13:53:56;;;;;;;3.90;3.60;;;15.30;99.90;;;;;;10417845;28;20276;-80
2022/11/08 13:58:58;;;;;;;3.70;3.40;;;15.30;99.90;;;;;;10411616;28;20563;-82
2022/11/08 14:04:00;;;;;;;3.87;3.57;;;15.30;99.90;;;;;;10394798;28;20203;-82
2022/11/08 14:09:17;;;;;;;21.53;4.33;;;15.40;99.90;;;;;;10392952;28;20286;-80
2022/11/08 14:14:47;;;;;;;4.50;4.10;;;15.40;99.90;;;;;;10428113;28;20275;-82
2022/11/08 14:19:51;;;;;;;4.20;3.90;;;15.50;99.90;;;;;;10390403;28;20217;-81
2022/11/08 14:25:00;;;;;;;4.73;4.33;;;15.50;99.90;;;;;;10407263;28;20197;-80
2022/11/08 14:30:04;;;;;;;7.63;6.07;;;15.50;99.90;;;;;;10426986;28;20275;-80
2022/11/08 14:35:24;;;;;;;5.23;4.70;;;15.50;99.90;;;;;;10410610;28;20201;-80
2022/11/08 14:40:37;;;;;;;4.80;4.20;;;15.50;99.90;;;;;;10400906;28;20341;-81
2022/11/08 14:45:43;;;;;;;4.40;4.17;;;15.50;99.90;;;;;;10416016;28;20193;-78
2022/11/08 14:50:45;;;;;;;4.50;4.20;;;15.50;99.90;;;;;;10415743;28;20201;-80
2022/11/08 14:55:56;;;;;;;4.60;4.20;;;15.50;99.90;;;;;;10424662;28;20665;-80
2022/11/08 15:01:01;;;;;;;5.07;4.60;;;15.40;99.90;;;;;;10424132;28;20213;-80
2022/11/08 15:06:05;;;;;;;3.80;3.50;;;15.40;99.90;;;;;;10424140;28;20630;-80
2022/11/08 15:11:26;;;;;;;4.87;3.60;;;15.40;99.90;;;;;;10404095;28;20232;-80
2022/11/08 15:16:38;;;;;;;4.20;3.90;;;15.40;99.90;;;;;;10405834;28;20230;-80
2022/11/08 15:21:51;;;;;;;4.40;3.87;;;15.30;99.90;;;;;;10407245;28;20202;-81
2022/11/08 15:27:14;;;;;;;5.00;4.10;;;15.10;99.90;;;;;;10393567;28;20265;-81
2022/11/08 15:32:17;;;;;;;5.50;5.10;;;15.00;99.90;;;;;;10392559;28;20195;-81
2022/11/08 15:37:21;;;;;;;5.60;5.20;;;14.90;99.90;;;;;;10383797;28;20427;-80
2022/11/08 15:42:25;;;;;;;12.40;4.90;;;14.70;99.90;;;;;;10394882;28;20294;-80
2022/11/08 15:47:36;;;;;;;5.00;4.20;;;14.60;99.90;;;;;;10394595;28;20232;-81
2022/11/08 15:52:39;;;;;;;6.07;4.50;;;14.50;99.90;;;;;;10414997;28;20198;-83
2022/11/08 15:57:44;;;;;;;6.97;4.43;;;14.40;99.90;;;;;;10371549;28;20233;-82
2022/11/08 16:02:46;;;;;;;6.80;3.80;;;14.40;99.90;;;;;;10410979;28;20190;-81
2022/11/08 16:07:49;;;;;;;6.20;4.50;;;14.30;99.90;;;;;;10384725;28;20222;-80
2022/11/08 16:12:53;;;;;;;7.77;6.50;;;14.30;99.90;;;;;;10412057;28;20210;-81
2022/11/08 16:17:55;;;;;;;14.07;10.30;;;14.20;99.90;;;;;;10406834;28;20261;-80
2022/11/08 16:22:59;;;;;;;13.43;10.70;;;14.10;99.90;;;;;;10389963;28;20198;-80
2022/11/08 16:28:06;;;;;;;8.70;7.90;;;14.10;99.90;;;;;;10404012;28;20683;-81
2022/11/08 16:33:18;;;;;;;16.70;13.37;;;14.10;99.90;;;;;;10408469;28;20205;-80
2022/11/08 16:38:24;;;;;;;13.33;11.83;;;14.10;99.90;;;;;;10373880;28;20310;-80
2022/11/08 16:43:28;;;;;;;10.37;9.23;;;14.10;99.90;;;;;;10442910;28;20198;-80
2022/11/08 16:48:30;;;;;;;11.40;10.10;;;14.00;99.90;;;;;;10406943;28;20226;-79
2022/11/08 16:53:32;;;;;;;16.27;12.30;;;14.00;99.90;;;;;;10407856;28;20202;-79
2022/11/08 16:58:36;;;;;;;17.03;13.93;;;14.00;99.90;;;;;;10399197;28;20237;-80
2022/11/08 17:03:38;;;;;;;13.20;11.80;;;14.00;99.90;;;;;;10417512;28;20439;-78
2022/11/08 17:08:40;;;;;;;10.97;9.57;;;13.90;99.90;;;;;;10390835;28;20234;-78
2022/11/08 17:13:44;;;;;;;16.80;12.43;;;13.90;99.90;;;;;;10404149;28;20198;-80
2022/11/08 17:18:46;;;;;;;12.90;11.00;;;13.90;99.90;;;;;;10395636;28;20242;-79
2022/11/08 17:23:48;;;;;;;10.03;9.03;;;13.90;99.90;;;;;;10372281;28;20200;-81
2022/11/08 17:28:54;;;;;;;9.43;8.63;;;13.90;99.90;;;;;;10371159;28;20296;-82
2022/11/08 17:33:56;;;;;;;8.97;7.90;;;13.90;99.90;;;;;;10389796;28;20203;-80
2022/11/08 17:38:59;;;;;;;9.77;8.97;;;13.90;99.90;;;;;;10410005;28;20214;-80
2022/11/08 17:44:02;;;;;;;9.87;8.97;;;13.80;99.90;;;;;;10404513;28;20224;-81
2022/11/08 17:49:04;;;;;;;9.23;8.10;;;13.80;99.90;;;;;;10406540;28;20714;-80
2022/11/08 17:54:06;;;;;;;11.43;10.23;;;13.90;99.90;;;;;;10398136;28;20591;-81
2022/11/08 17:59:10;;;;;;;12.20;9.27;;;13.80;99.90;;;;;;10386259;28;20214;-80
2022/11/08 18:04:13;;;;;;;21.20;10.87;;;13.90;99.90;;;;;;10364604;28;20224;-79
2022/11/08 18:09:15;;;;;;;8.20;7.27;;;13.80;99.90;;;;;;10364015;28;20630;-81
2022/11/08 18:14:21;;;;;;;8.63;7.93;;;13.90;99.90;;;;;;10384755;28;20653;-81
2022/11/08 18:19:23;;;;;;;9.33;8.50;;;13.90;99.90;;;;;;10373711;28;20571;-81
2022/11/08 18:24:25;;;;;;;9.20;8.20;;;13.80;99.90;;;;;;10392236;28;20201;-81
2022/11/08 18:29:29;;;;;;;9.03;8.13;;;13.80;99.90;;;;;;10384032;28;20280;-80
2022/11/08 18:34:31;;;;;;;14.40;11.87;;;13.70;99.90;;;;;;10362550;28;20286;-80
2022/11/08 18:39:33;;;;;;;15.00;12.20;;;13.70;99.90;;;;;;10412072;28;20217;-83
2022/11/08 18:44:37;;;;;;;10.97;9.90;;;13.70;99.90;;;;;;10416127;28;20725;-81
2022/11/08 18:49:39;;;;;;;10.67;9.67;;;13.60;99.90;;;;;;10372831;28;20218;-82
2022/11/08 18:54:41;;;;;;;14.07;12.60;;;13.60;99.90;;;;;;10369316;28;20257;-81
2022/11/08 18:59:45;;;;;;;13.33;11.53;;;13.60;99.90;;;;;;10407280;28;20228;-82
2022/11/08 19:04:47;;;;;;;12.63;10.53;;;13.50;99.90;;;;;;10443072;28;20189;-81
2022/11/08 19:09:49;;;;;;;9.37;8.57;;;13.50;99.90;;;;;;10439515;28;20225;-81
2022/11/08 19:14:52;;;;;;;11.00;9.90;;;13.40;99.90;;;;;;10460095;28;20189;-81
2022/11/08 19:19:55;;;;;;;11.43;10.37;;;13.30;99.90;;;;;;10455513;28;20217;-81
2022/11/08 19:24:57;;;;;;;10.20;9.13;;;13.30;99.90;;;;;;10443236;28;20661;-81
2022/11/08 19:30:00;;;;;;;9.97;9.10;;;13.30;99.90;;;;;;10441677;28;20293;-81
2022/11/08 19:35:02;;;;;;;8.60;8.00;;;13.30;99.90;;;;;;10460391;28;20197;-82
2022/11/08 19:40:05;;;;;;;8.33;7.00;;;13.30;99.90;;;;;;10405287;28;20234;-82
2022/11/08 19:45:10;;;;;;;8.83;8.03;;;13.40;99.90;;;;;;10414409;28;20229;-82
2022/11/08 19:50:12;;;;;;;8.33;7.63;;;13.40;99.90;;;;;;10432761;28;20217;-82
2022/11/08 19:55:14;;;;;;;8.27;7.67;;;13.50;99.90;;;;;;10432164;28;20204;-82
2022/11/08 20:00:20;;;;;;;8.40;7.70;;;13.60;99.90;;;;;;10407640;28;20215;-82
2022/11/08 20:05:22;;;;;;;9.13;8.43;;;13.60;99.90;;;;;;10386932;28;20213;-82
2022/11/08 20:10:24;;;;;;;9.53;7.93;;;13.60;99.90;;;;;;10421006;28;20219;-82
2022/11/08 20:15:28;;;;;;;8.30;7.70;;;13.60;99.90;;;;;;10422606;28;20622;-82
2022/11/08 20:20:30;;;;;;;8.67;7.97;;;13.60;99.90;;;;;;10451378;28;20236;-82
2022/11/08 20:25:33;;;;;;;8.37;7.60;;;13.60;99.90;;;;;;10433493;28;20204;-83
2022/11/08 20:30:37;;;;;;;7.53;7.03;;;13.60;99.90;;;;;;10426329;28;20221;-82
2022/11/08 20:35:40;;;;;;;9.03;8.07;;;13.60;99.90;;;;;;10453633;28;20257;-81
2022/11/08 20:40:42;;;;;;;8.90;8.00;;;13.60;99.90;;;;;;10423669;28;20237;-82
2022/11/08 20:45:46;;;;;;;8.37;7.63;;;13.60;99.90;;;;;;10409610;28;20219;-82
2022/11/08 20:50:48;;;;;;;6.73;6.23;;;13.60;99.90;;;;;;10421835;28;20217;-81
2022/11/08 20:55:56;;;;;;;6.03;5.63;;;13.60;99.90;;;;;;10403651;28;20236;-82
2022/11/08 21:01:01;;;;;;;6.10;5.60;;;13.60;99.90;;;;;;10427993;28;20216;-81
2022/11/08 21:06:05;;;;;;;5.93;5.43;;;13.60;99.90;;;;;;10406851;28;20787;-81
2022/11/08 21:11:08;;;;;;;7.60;5.93;;;13.60;99.90;;;;;;10410392;28;20217;-81
2022/11/08 21:16:14;;;;;;;9.80;7.00;;;13.60;99.90;;;;;;10423436;28;20255;-82
2022/11/08 21:21:18;;;;;;;6.73;6.30;;;13.60;99.90;;;;;;10450377;28;20560;-82
2022/11/08 21:26:20;;;;;;;7.27;6.60;;;13.60;99.90;;;;;;10406697;28;20217;-81
2022/11/08 21:31:23;;;;;;;7.60;7.00;;;13.60;99.90;;;;;;10405217;28;20628;-82
2022/11/08 21:36:27;;;;;;;7.33;6.73;;;13.60;99.90;;;;;;10419158;28;20220;-83
2022/11/08 21:41:29;;;;;;;7.50;7.00;;;13.60;99.90;;;;;;10417071;28;20539;-82
2022/11/08 21:46:33;;;;;;;7.27;6.67;;;13.60;99.90;;;;;;10420223;28;20277;-83
2022/11/08 21:51:37;;;;;;;8.40;7.60;;;13.60;99.90;;;;;;10402375;28;20225;-84
2022/11/08 21:56:39;;;;;;;8.13;7.47;;;13.60;99.90;;;;;;10400697;28;20681;-83
2022/11/08 22:01:42;;;;;;;8.70;7.90;;;13.60;99.90;;;;;;10417072;28;20276;-83
2022/11/08 22:06:44;;;;;;;8.57;7.87;;;13.60;99.90;;;;;;10419194;28;20221;-84
2022/11/08 22:11:46;;;;;;;11.50;10.50;;;13.50;99.90;;;;;;10421024;28;20220;-83
2022/11/08 22:16:50;;;;;;;17.40;13.90;;;13.50;99.90;;;;;;10409651;28;20233;-82
2022/11/08 22:21:52;;;;;;;19.83;17.80;;;13.40;99.90;;;;;;10418013;28;20277;-84
2022/11/08 22:26:54;;;;;;;18.30;16.07;;;13.30;99.90;;;;;;10419488;28;20225;-84
2022/11/08 22:31:57;;;;;;;33.33;22.13;;;13.20;99.90;;;;;;10395856;28;20218;-83
2022/11/08 22:36:59;;;;;;;10.50;9.63;;;13.20;99.90;;;;;;10400396;28;20236;-80
2022/11/08 22:42:02;;;;;;;12.17;10.77;;;13.10;99.90;;;;;;10411708;28;20191;-82
2022/11/08 22:47:05;;;;;;;9.87;8.83;;;13.10;99.90;;;;;;10392393;28;20213;-83
2022/11/08 22:52:07;;;;;;;9.37;8.57;;;13.10;99.90;;;;;;10408925;28;20225;-83
2022/11/08 22:57:09;;;;;;;8.70;8.00;;;13.10;99.90;;;;;;10403556;28;20607;-82
2022/11/08 23:02:16;;;;;;;6.50;6.07;;;13.10;99.90;;;;;;10413641;28;20186;-82
2022/11/08 23:07:18;;;;;;;6.60;6.10;;;13.20;99.90;;;;;;10422549;28;20240;-83
2022/11/08 23:24:22;;;;;;;6.57;5.97;;;13.30;99.90;;;;;;10421733;28;20181;-82
2022/11/08 23:34:40;;;;;;;6.27;5.67;;;13.40;99.90;;;;;;10394904;28;20781;-83
2022/11/08 23:44:59;;;;;;;5.70;5.20;;;13.40;99.90;;;;;;10401395;28;20205;-82
2022/11/08 23:50:01;;;;;;;6.10;5.30;;;13.40;99.90;;;;;;10423302;28;20312;-82
2022/11/08 23:55:06;;;;;;;6.90;6.33;;;13.50;99.90;;;;;;10431039;28;20197;-82
